Mesquite, Nevada Weather observations

Data are for observation ending at time listed.
 Day   Time    Ave.   Ave.  Ave.  Vector   Max.   Stn.    Total    Solar   Ave.  
  of    of     Air    Rel.  Wind   Wind    Wind   Baro.  Precip.   Rad.    Soil  
Year   Day     Temp.  Hum.  Speed  Dir.    Gust   Pres.                    Temp. 
2016   (PST)    F      %     mph   deg.    mph     mb.     in.     W/m2     F   
------------------------------------------------------------------------------
 204   13:30  111.5    10    5.9   223     12.3   948.1    0.00     656    108.6
 204   13:40  111.2    10   10.1   253     19.2   947.9    0.00     645    108.9
 204   13:50  110.8    10   10.4   239     20.5   947.7    0.00     632    109.1
 204   14:00  111.2    10    9.3   233     20.8   947.5    0.00     619    109.4
 204   14:10  110.9    10    9.6   250     18.1   947.3    0.00     605    109.7
 204   14:20  110.9    10   10.8   238     18.3   947.1    0.00     589    110.0
 204   14:30  111.0    10   10.4   234     20.3   946.9    0.00     570    110.2
 204   14:40  111.4     9    9.3   242     17.3   946.8    0.00     554    110.4
 204   14:50  111.1     9    9.5   246     16.6   946.7    0.00     535    110.6
 204   15:00  111.2     9   10.1   265     21.5   946.4    0.00     515    110.7
 204   15:10  111.7     9    9.1   251     16.7   946.3    0.00     494    110.9
 204   15:20  111.3     9   10.9   256     18.6   946.1    0.00     473    111.0
 204   15:30  111.1     9    9.3   244     16.1   946.0    0.00     452    111.1
 204   15:40  111.3     9    8.1   255     15.3   946.0    0.00     430    111.2
 204   15:50  111.1     9    8.6   263     19.7   945.9    0.00     407    111.2
 204   16:00  111.9     9    7.7   266     14.1   945.7    0.00     384    111.3
 204   16:10  111.3     9    7.1   260     12.9   945.4    0.00     360    111.4
 204   16:20  112.3     9    4.9   220     10.7   945.3    0.00     336    111.4
 204   16:30  112.6     9    5.6   234     14.6   945.1    0.00     311    111.5
 204   16:40  111.4     9    7.2   257     13.6   944.9    0.00     285    111.4
 204   16:50  111.1     9    7.6   254     12.1   944.8    0.00     260    111.4
 204   17:00  111.1     9    5.8   258     11.4   944.8    0.00     235    111.3
 204   17:10  111.2     9    4.8   263     10.6   944.7    0.00     209    111.3
 204   17:20  111.4     9    4.5   245      9.9   944.7    0.00     184    111.3
 204   17:30  111.4     9    5.2   237     12.0   944.6    0.00     160    111.2
 204   17:40  111.6     8    4.0   208     10.0   944.6    0.00     137    111.2
 204   17:50  111.2     8    5.3   232      9.0   944.7    0.00     114    111.1
 204   18:00  111.1     9    3.7   238      8.1   944.7    0.00      93    111.0
 204   18:10  110.4     9    4.8   234     10.1   944.6    0.00      70    110.9
 204   18:20  109.9     9    5.1   249      9.0   944.6    0.00      47    110.7
 204   18:30  109.0     9    3.9   244      8.0   944.6    0.00      25    110.5
 204   18:40  107.9     9    3.6   245      5.3   944.6    0.00      11    110.4
 204   18:50  107.4     9    3.6   241      7.6   944.7    0.00       8    110.2
 204   19:00  107.0    10    2.9   237      6.4   944.8    0.00       3    110.0
 204   19:10  105.9    10    1.7   226      4.3   944.8    0.00       3    109.8
 204   19:20  105.0    11    1.8   232      5.3   945.0    0.00       1    109.6
 204   19:30  103.9    11    1.0   231      2.6   945.0    0.00       0    109.4
 204   19:40  103.4    11    2.0   207      4.5   945.1    0.00       0    109.2
 204   19:50  103.5    11    1.7   208      3.9   945.2    0.00       0    108.9
 204   20:00  102.6    11    2.4   133      4.5   945.4    0.00       0    108.8
 204   20:10  100.4    12    1.5    64      2.9   945.6    0.00       0    108.6
 204   20:20   99.1    12    1.4    49      3.8   945.7    0.00       0    108.4
 204   20:30   97.9    12    2.1    30      3.7   945.8    0.00       0    108.1
 204   20:40   97.3    12    2.1    32      3.5   945.9    0.00       0    107.9
 204   20:50   97.2    12    2.4    15      3.5   946.0    0.00       1    107.7
 204   21:00   97.3    12    3.2    13      4.3   946.0    0.00       0    107.5
 204   21:10   97.6    12    1.9    16      3.4   945.9    0.00       1    107.3
 204   21:20   97.2    12    2.7    17      3.6   945.9    0.00       1    107.1
 204   21:30   97.2    12    2.3    16      3.6   945.9    0.00       1    106.9
 204   21:40   97.4    12    0.9     6      2.0   945.9    0.00       1    106.8
 204   21:50   97.8    13    1.8   308      2.7   945.9    0.00       1    106.6
 204   22:00   98.5    13    1.8   225      4.5   945.9    0.00       1    106.3
 204   22:10  100.0    12    2.5   255      6.0   945.9    0.00       1    106.2
 204   22:20   96.7    14    1.6   115      4.1   946.0    0.00       1    106.0
 204   22:30   95.2    14    1.2    41      2.9   945.9    0.00       1    105.9
 204   22:40   95.8    13    1.6    87      4.2   946.0    0.00       1    105.6
 204   22:50   96.0    13    3.1    56      5.5   946.0    0.00       1    105.5
 204   23:00   97.5    12    2.8    68      5.5   946.0    0.00       1    105.3
 204   23:10   96.0    12    5.1    50      7.7   946.1    0.00       1    105.1
 204   23:20   96.1    12    4.9    41      8.0   946.1    0.00       1    104.9
 204   23:30   97.1    12    4.7    56      8.0   946.2    0.00       1    104.8
 204   23:40   97.3    12    4.0    31      7.1   946.2    0.00       1    104.7
 204   23:50   94.9    12    3.9    43      5.4   946.2    0.00       1    104.5
 205    0:00   95.3    12    3.2    41      5.3   946.2    0.00       1    104.4
 205    0:10   93.7    13    2.6    35      4.7   946.2    0.00       1    104.2
 205    0:20   93.4    15    2.6   334      5.0   946.1    0.00       1    104.1
 205    0:30   92.7    15    2.1   256      7.7   946.2    0.00       1    103.9
 205    0:40   91.7    15    1.6    68      4.5   946.2    0.00       1    103.8
 205    0:50   91.4    15    1.6    70      4.2   946.2    0.00       1    103.7
 205    1:00   92.4    14    2.8    48      5.0   946.2    0.00       1    103.5
 205    1:10   92.0    16    1.8    43      3.9   946.1    0.00       1    103.4
 205    1:20   91.0    16    2.0    66      8.7   946.1    0.00       1    103.3
 205    1:30   93.1    14    1.5   140      5.3   946.0    0.00       1    103.1
 205    1:40   95.1    13    3.4   142      7.5   946.1    0.00       1    102.9
 205    1:50   95.7    12    4.2   110      7.9   946.2    0.00       1    102.8
 205    2:00   94.7    13    2.6   101      5.8   946.2    0.00       1    102.7
 205    2:10   93.9    13    1.4    35      4.2   946.2    0.00       1    102.6
 205    2:20   92.5    14    1.9    83      6.6   946.2    0.00       1    102.4
 205    2:30   90.2    16    1.0   105      5.0   946.2    0.00       1    102.3
 205    2:40   86.3    17    3.9    77      6.6   946.1    0.00       1    102.2
 205    2:50   83.9    18    2.9    35      3.9   946.1    0.00       2    102.0
 205    3:00   86.2    17    1.8    38      5.2   946.2    0.00       1    101.9
 205    3:10   85.4    18    2.8    96      5.2   946.2    0.00       1    101.8
 205    3:20   83.6    18    2.3    96      4.6   946.3    0.00       1    101.7
 205    3:30   84.7    18    3.1   240      4.8   946.3    0.00       1    101.6
 205    3:40   85.2    19    3.6   279      5.0   946.3    0.00       1    101.5
 205    3:50   84.5    18    3.2   335      5.0   946.5    0.00       1    101.3
 205    4:00   84.1    18    3.3    61      6.9   946.6    0.00       1    101.2
 205    4:10   84.3    18    4.6    63      6.4   946.8    0.00       1    101.1
 205    4:20   83.8    18    3.8    57      6.2   946.9    0.00       2    100.9
 205    4:30   84.3    17    1.4   107      2.9   947.1    0.00       3    100.8
 205    4:40   84.5    18    2.4    25      6.1   947.2    0.00       3    100.6
 205    4:50   84.0    18    2.5   360      6.2   947.3    0.00       4    100.5
 205    5:00   83.3    20    1.7   256      5.4   947.4    0.00       9    100.3
 205    5:10   84.2    19    1.0   228      3.6   947.6    0.00      26    100.2
 205    5:20   84.8    18    2.2   150      3.7   947.7    0.00      46    100.1
 205    5:30   85.3    18    1.4   103      3.7   947.7    0.00      68    100.0
 205    5:40   88.4    16    0.3   114      1.3   947.8    0.00      92    99.8
 205    5:50   90.0    15    0.9   130      2.3   948.0    0.00     114    99.7
 205    6:00   89.5    15    1.4    64      2.4   948.0    0.00     139    99.6
 205    6:10   90.4    15    1.1    62      2.4   948.1    0.00     164    99.4
 205    6:20   92.0    15    0.5   189      2.1   948.1    0.00     190    99.3
 205    6:30   91.1    16    1.1   326      2.0   948.1    0.00     216    99.2
 205    6:40   91.1    16    1.8   295      2.7   948.1    0.00     242    99.1
 205    6:50   91.1    16    2.5   274      3.8   948.1    0.00     269    99.0
 205    7:00   92.2    16    1.7   248      3.3   948.2    0.00     294    98.9
 205    7:10   92.9    16    2.2   226      3.4   948.2    0.00     318    98.8
 205    7:20   93.8    15    2.2   199      4.2   948.2    0.00     343    98.8
 205    7:30   95.7    15    1.3   186      3.5   948.2    0.00     365    98.8
 205    7:40   95.2    15    2.1   195      3.7   948.2    0.00     388    98.7
 205    7:50   97.0    15    2.1   196      3.9   948.1    0.00     410    98.7
 205    8:00   97.0    15    1.7   216      3.7   948.1    0.00     432    98.7
 205    8:10   99.0    14    1.1   205      2.7   948.0    0.00     453    98.6
 205    8:20  100.3    14    1.0   222      2.6   948.0    0.00     474    98.6
 205    8:30  100.9    14    1.2   210      2.5   948.0    0.00     493    98.6
 205    8:40  100.9    14    1.4   258      2.9   948.0    0.00     514    98.6
 205    8:50  102.3    14    1.5   252      3.2   947.9    0.00     532    98.6
 205    9:00  103.9    13    1.0   234      2.8   947.9    0.00     550    98.6
 205    9:10  104.4    13    1.0   292      2.2   947.9    0.00     569    98.7
 205    9:20  105.1    12    1.8   196      6.8   947.8    0.00     586    98.8
 205    9:30  105.0    12    4.3   258      8.6   947.7    0.00     603    98.9
 205    9:40  104.1    12    5.4   275      9.0   947.6    0.00     618    99.2
 205    9:50  103.9    12    6.5   276     14.6   947.6    0.00     631    99.6
 205   10:00  104.1    12    5.0   285     11.8   947.5    0.00     647    100.0
 205   10:10  105.1    12    5.4   248      9.2   947.4    0.00     660    100.4
 205   10:20  105.6    12    3.7   241      7.1   947.4    0.00     671    100.8
 205   10:30  105.9    12    4.1   241      7.2   947.3    0.00     680    101.3
 205   10:40  106.6    11    2.4   267      4.8   947.2    0.00     689    101.7
 205   10:50  107.4    11    3.1   225      6.4   947.0    0.00     696    102.1
 205   11:00  107.8    11    4.3   238     12.6   946.9    0.00     702    102.6
 205   11:10  107.5    11    3.9   254      9.1   946.8    0.00     708    103.1
 205   11:20  108.5    11    4.7   233      9.3   946.7    0.00     716    103.5
 205   11:30  108.7    10    4.0   229      8.0   946.5    0.00     714    104.0
 205   11:40  109.0    10    6.0   248     14.0   946.4    0.00     715    104.5
 205   11:50  108.4     9    4.8   263     10.0   946.3    0.00     720    105.0
 205   12:00  109.9     9    5.7   244     12.0   946.2    0.00     719    105.4
 205   12:10  109.3     8    5.2   249     10.0   946.1    0.00     716    105.9
 205   12:20  110.1     8    5.2   242     11.5   945.9    0.00     716    106.3
 205   12:30  110.1     8    8.6   249     16.9   945.6    0.00     712    106.7
 205   12:40  110.1     8    8.9   254     19.2   945.5    0.00     705    107.1
 205   12:50  110.1     8   10.9   256     18.5   945.3    0.00     698    107.5
 205   13:00  110.3     8   10.3   240     18.7   945.2    0.00     690    107.8
 205   13:10  110.7     8    9.3   256     19.2   945.1    0.00     682    108.2
 205   13:20  110.8     8    9.6   250     18.3   945.0    0.00     672    108.5

Return to Mesquite, Nevada graphs page.


Western Regional Climate Center,wrcc@dri.edu